createdAt,value
2019-03-25T00:01:55.738Z,55.78
2019-03-25T00:04:24.310Z,56.88
2019-03-25T00:06:52.746Z,58.50
2019-03-25T00:09:21.161Z,48.98
2019-03-25T00:11:49.649Z,60.63
2019-03-25T00:14:18.131Z,56.50
2019-03-25T00:16:47.258Z,59.53
2019-03-25T00:19:15.766Z,61.60
2019-03-25T00:21:45.818Z,52.85
2019-03-25T00:24:14.247Z,56.80
2019-03-25T00:26:42.767Z,56.88
2019-03-25T00:29:11.262Z,59.20
2019-03-25T00:31:39.828Z,58.23
2019-03-25T00:34:08.293Z,54.35
2019-03-25T00:36:36.819Z,58.50
2019-03-25T00:39:07.304Z,53.80
2019-03-25T00:41:35.863Z,53.20
2019-03-25T00:44:05.422Z,59.50
2019-03-25T00:46:33.995Z,56.25
2019-03-25T00:49:02.558Z,60.25
2019-03-25T00:51:31.010Z,56.65
2019-03-25T00:53:59.464Z,55.85
2019-03-25T00:56:28.263Z,42.40
2019-03-25T00:58:56.764Z,45.08
2019-03-25T01:01:25.176Z,49.73
2019-03-25T01:03:53.668Z,52.33
2019-03-25T01:06:22.128Z,54.53
2019-03-25T01:08:52.272Z,61.85
2019-03-25T01:11:20.752Z,58.85
2019-03-25T01:13:49.186Z,57.00
2019-03-25T01:16:17.681Z,56.48
2019-03-25T01:18:46.137Z,58.08
2019-03-25T01:21:14.605Z,61.30
2019-03-25T01:23:43.030Z,48.23
2019-03-25T01:26:11.521Z,45.55
2019-03-25T01:28:43.580Z,54.18
2019-03-25T01:31:12.353Z,47.58
2019-03-25T01:33:40.842Z,55.05
2019-03-25T01:36:09.394Z,54.75
2019-03-25T01:38:37.863Z,61.35
2019-03-25T01:41:06.359Z,56.05
2019-03-25T01:43:34.807Z,56.90
2019-03-25T01:46:03.259Z,50.15
2019-03-25T01:48:31.731Z,61.68
2019-03-25T01:51:01.400Z,70.12
2019-03-25T01:53:32.149Z,56.33
2019-03-25T01:56:00.602Z,59.08
2019-03-25T01:58:29.121Z,60.28
2019-03-25T02:00:57.627Z,64.03
2019-03-25T02:03:26.079Z,60.23
2019-03-25T02:05:54.547Z,55.98
2019-03-25T02:08:23.058Z,58.35
2019-03-25T02:10:51.493Z,53.15
2019-03-25T02:13:19.941Z,54.38
2019-03-25T02:15:48.391Z,57.00
2019-03-25T02:18:16.760Z,58.65
2019-03-25T02:20:45.256Z,52.00
2019-03-25T02:23:13.761Z,52.70
2019-03-25T02:25:42.292Z,56.20
2019-03-25T02:28:10.816Z,57.25
2019-03-25T02:30:39.409Z,61.55
2019-03-25T02:33:07.956Z,47.78
2019-03-25T02:35:36.504Z,50.43
2019-03-25T02:38:04.955Z,51.02
2019-03-25T02:40:33.450Z,51.73
2019-03-25T02:43:01.997Z,57.80
2019-03-25T02:45:30.447Z,56.40
2019-03-25T02:47:58.933Z,55.73
2019-03-25T02:50:27.362Z,48.17
2019-03-25T02:52:55.863Z,53.55
2019-03-25T02:55:24.379Z,54.10
2019-03-25T02:57:52.894Z,53.38
2019-03-25T03:00:22.823Z,54.35
2019-03-25T03:02:51.379Z,54.15
2019-03-25T03:05:19.841Z,62.98
2019-03-25T03:07:48.232Z,67.05
2019-03-25T03:10:16.770Z,60.85
2019-03-25T03:12:45.271Z,57.88
2019-03-25T03:15:13.777Z,56.68
2019-03-25T03:17:42.304Z,52.23
2019-03-25T03:20:10.853Z,49.55
2019-03-25T03:22:39.330Z,50.58
2019-03-25T03:25:07.876Z,52.35
2019-03-25T03:27:36.482Z,58.60
2019-03-25T03:30:06.342Z,52.83
2019-03-25T03:32:34.744Z,56.88
2019-03-25T03:35:03.626Z,47.03
2019-03-25T03:37:32.046Z,52.38
2019-03-25T03:40:01.697Z,49.67
2019-03-25T03:42:30.191Z,49.95
2019-03-25T03:44:58.616Z,55.12
2019-03-25T03:47:27.056Z,53.15
2019-03-25T03:49:55.497Z,52.75
2019-03-25T03:52:23.967Z,46.95
2019-03-25T03:54:53.328Z,46.68
2019-03-25T03:57:21.751Z,46.18
2019-03-25T03:59:50.800Z,46.15
2019-03-25T04:02:19.213Z,44.65
2019-03-25T04:04:47.590Z,50.52
2019-03-25T04:07:16.012Z,42.88
2019-03-25T04:09:45.425Z,51.58
2019-03-25T04:12:13.872Z,50.95
2019-03-25T04:14:42.295Z,53.87
2019-03-25T04:17:10.720Z,56.15
2019-03-25T04:19:39.097Z,47.33
2019-03-25T04:22:07.543Z,49.90
2019-03-25T04:24:35.975Z,50.08
2019-03-25T04:27:04.463Z,49.65
2019-03-25T04:29:32.939Z,48.70
2019-03-25T04:32:01.348Z,48.52
2019-03-25T04:34:29.799Z,49.25
2019-03-25T04:36:58.294Z,49.60
2019-03-25T04:39:26.710Z,51.10
2019-03-25T04:41:55.152Z,49.58
2019-03-25T04:44:23.729Z,51.63
2019-03-25T04:46:52.733Z,53.65
2019-03-25T04:49:21.294Z,53.35
2019-03-25T04:51:49.865Z,53.63
2019-03-25T04:54:18.316Z,55.58
2019-03-25T04:56:46.777Z,51.88
2019-03-25T04:59:15.310Z,56.70
2019-03-25T05:01:43.804Z,51.73
2019-03-25T05:04:12.312Z,56.00
2019-03-25T05:06:40.795Z,54.30
2019-03-25T05:09:09.356Z,56.45
2019-03-25T05:11:37.909Z,54.58
2019-03-25T05:14:06.449Z,54.95
2019-03-25T05:16:34.881Z,54.48
2019-03-25T05:19:03.350Z,49.15
2019-03-25T05:21:31.941Z,44.70
2019-03-25T05:24:00.411Z,45.50
2019-03-25T05:26:28.935Z,44.58
2019-03-25T05:28:58.583Z,50.17
2019-03-25T05:31:31.654Z,52.23
2019-03-25T05:34:00.194Z,51.95
2019-03-25T05:36:28.739Z,51.77
2019-03-25T05:38:57.220Z,51.48
2019-03-25T05:41:25.735Z,54.40
2019-03-25T05:43:55.973Z,55.52
2019-03-25T05:46:24.486Z,49.03
2019-03-25T05:48:52.926Z,54.50
2019-03-25T05:51:24.987Z,51.75
2019-03-25T05:53:53.435Z,50.92
2019-03-25T05:56:21.854Z,53.40
2019-03-25T05:58:50.340Z,54.30
2019-03-25T06:01:18.948Z,56.95
2019-03-25T06:03:59.769Z,63.38
2019-03-25T06:06:28.316Z,56.28
2019-03-25T06:09:01.377Z,56.60
2019-03-25T06:11:30.011Z,50.90
2019-03-25T06:13:58.570Z,57.45
2019-03-25T06:22:31.390Z,55.03
2019-03-25T06:25:10.635Z,58.73
2019-03-25T06:27:41.744Z,59.35
2019-03-25T06:30:15.651Z,56.18
2019-03-25T06:32:44.691Z,54.80
2019-03-25T06:35:15.870Z,58.80
2019-03-25T06:40:38.948Z,51.95
2019-03-25T06:54:57.204Z,60.85
2019-03-25T07:17:38.984Z,62.20
2019-03-25T07:20:21.772Z,57.73
2019-03-25T07:22:50.274Z,63.08
2019-03-25T07:25:18.712Z,63.48
2019-03-25T07:27:47.239Z,60.63
2019-03-25T07:30:15.739Z,66.30
2019-03-25T07:32:44.177Z,61.28
2019-03-25T07:35:12.616Z,57.88
2019-03-25T07:37:41.022Z,58.40
2019-03-25T07:40:10.537Z,66.90
2019-03-25T07:42:43.049Z,56.53
2019-03-25T07:45:11.665Z,64.12
2019-03-25T07:47:40.114Z,56.00
2019-03-25T07:50:08.537Z,59.38
2019-03-25T07:52:37.589Z,63.45
2019-03-25T07:55:06.525Z,71.60
2019-03-25T07:57:34.996Z,72.08
2019-03-25T08:00:13.387Z,59.85
2019-03-25T08:02:35.263Z,64.95
2019-03-25T08:05:04.305Z,55.45
2019-03-25T08:07:32.757Z,65.62
2019-03-25T08:10:01.336Z,69.70
2019-03-25T08:12:30.002Z,64.70
2019-03-25T08:14:58.632Z,59.23
2019-03-25T08:17:27.748Z,60.60
2019-03-25T08:19:56.187Z,71.35
2019-03-25T08:22:24.727Z,67.70
2019-03-25T08:24:53.354Z,72.55
2019-03-25T08:27:21.912Z,68.62
2019-03-25T08:29:50.464Z,71.53
2019-03-25T08:32:20.068Z,72.60
2019-03-25T08:34:50.215Z,51.37
2019-03-25T08:37:18.865Z,58.25
2019-03-25T08:39:47.499Z,71.37
2019-03-25T08:42:28.877Z,61.95
2019-03-25T08:45:10.363Z,64.70
2019-03-25T08:47:50.320Z,60.67
2019-03-25T08:50:33.255Z,58.00
2019-03-25T08:53:01.181Z,61.10
2019-03-25T08:55:29.757Z,66.22
2019-03-25T08:57:58.336Z,59.98
2019-03-25T09:00:27.041Z,58.17
2019-03-25T09:02:55.656Z,51.68
2019-03-25T09:05:24.243Z,60.85
2019-03-25T09:07:52.797Z,61.95
2019-03-25T09:13:13.750Z,63.48
2019-03-25T09:15:42.794Z,59.88
2019-03-25T09:18:11.386Z,59.40
2019-03-25T09:20:40.063Z,59.25
2019-03-25T09:23:10.100Z,65.60
2019-03-25T09:25:39.804Z,59.75
2019-03-25T09:28:08.396Z,60.25
2019-03-25T09:30:53.638Z,59.60
2019-03-25T09:33:22.453Z,62.13
2019-03-25T09:35:52.722Z,63.00
2019-03-25T09:38:24.559Z,62.70
2019-03-25T09:40:53.313Z,61.13
2019-03-25T09:43:21.895Z,53.70
2019-03-25T09:45:51.819Z,59.77
2019-03-25T09:48:21.929Z,57.27
2019-03-25T09:50:50.447Z,55.28
2019-03-25T09:53:41.075Z,59.15
2019-03-25T09:55:59.276Z,54.95
2019-03-25T09:58:36.094Z,57.85
2019-03-25T10:00:58.036Z,68.67
2019-03-25T10:03:26.452Z,55.98
2019-03-25T10:05:54.917Z,61.83
2019-03-25T10:08:25.581Z,59.73
2019-03-25T10:10:54.230Z,54.53
2019-03-25T10:13:22.735Z,64.62
2019-03-25T10:15:53.967Z,64.50
2019-03-25T10:18:27.674Z,52.62
2019-03-25T10:20:56.212Z,55.93
2019-03-25T10:23:24.833Z,60.05
2019-03-25T10:25:53.336Z,58.38
2019-03-25T10:28:21.945Z,59.60
2019-03-25T10:30:51.177Z,61.83
2019-03-25T10:33:21.276Z,61.98
2019-03-25T10:35:51.458Z,65.40
2019-03-25T10:38:34.417Z,61.73
2019-03-25T10:41:04.563Z,73.55
2019-03-25T10:43:33.104Z,60.33
2019-03-25T10:46:11.958Z,63.05
2019-03-25T10:48:31.861Z,53.45
2019-03-25T10:51:00.431Z,68.07
2019-03-25T10:53:29.031Z,62.90
2019-03-25T10:55:57.649Z,64.72
2019-03-25T10:58:29.792Z,54.93
2019-03-25T11:00:58.341Z,61.65
2019-03-25T11:03:26.888Z,54.18
2019-03-25T11:05:55.513Z,68.92
2019-03-25T11:08:27.581Z,54.08
2019-03-25T11:10:57.154Z,60.52
2019-03-25T11:13:27.381Z,56.08
2019-03-25T11:15:55.964Z,56.92
2019-03-25T11:18:24.915Z,55.05
2019-03-25T11:20:59.366Z,70.10
2019-03-25T11:23:26.693Z,55.33
2019-03-25T11:25:55.308Z,55.65
2019-03-25T11:28:23.854Z,58.55
2019-03-25T11:30:56.131Z,57.45
2019-03-25T11:33:28.676Z,54.05
2019-03-25T11:35:57.158Z,55.38
2019-03-25T11:38:25.671Z,61.88
2019-03-25T11:40:54.179Z,59.83
2019-03-25T11:43:23.560Z,63.80
2019-03-25T11:45:52.242Z,62.25
2019-03-25T11:48:20.682Z,60.92
2019-03-25T11:50:49.148Z,57.50
2019-03-25T11:53:17.700Z,59.65
2019-03-25T11:55:46.226Z,45.03
2019-03-25T11:58:14.780Z,44.88
2019-03-25T12:00:43.213Z,58.38
2019-03-25T12:03:13.899Z,56.45
2019-03-25T12:05:43.966Z,67.00
2019-03-25T12:08:12.562Z,58.65
2019-03-25T12:10:41.134Z,55.15
2019-03-25T12:13:09.695Z,48.30
2019-03-25T12:15:38.285Z,57.08
2019-03-25T12:18:06.895Z,46.73
2019-03-25T12:20:35.526Z,45.85
2019-03-25T12:23:04.146Z,47.78
2019-03-25T12:25:32.677Z,51.37
2019-03-25T12:28:01.321Z,53.17
2019-03-25T12:30:29.889Z,46.35
2019-03-25T12:33:03.949Z,41.55
2019-03-25T12:35:28.612Z,40.10
2019-03-25T12:37:57.148Z,39.60
2019-03-25T12:40:25.645Z,36.48
2019-03-25T12:42:54.709Z,32.93
2019-03-25T12:45:28.474Z,37.67
2019-03-25T12:54:04.625Z,21.45
2019-03-25T12:56:33.267Z,26.17
2019-03-25T12:59:01.885Z,20.82
2019-03-25T13:01:32.056Z,21.25
2019-03-25T13:04:00.624Z,19.25
2019-03-25T13:06:29.185Z,23.05
2019-03-25T13:09:00.037Z,23.00
2019-03-25T13:11:27.958Z,23.80
2019-03-25T13:13:57.234Z,16.10
2019-03-25T13:16:25.788Z,20.60
2019-03-25T13:18:54.437Z,22.65
2019-03-25T13:21:22.950Z,20.57
2019-03-25T13:23:51.507Z,20.77
2019-03-25T13:26:20.091Z,18.95
2019-03-25T13:28:48.678Z,16.10
2019-03-25T13:31:17.128Z,15.10
2019-03-25T13:33:48.497Z,19.50
2019-03-25T13:36:17.142Z,18.67
2019-03-25T13:38:45.661Z,19.50
2019-03-25T13:41:14.215Z,24.37
2019-03-25T13:43:43.831Z,16.52
2019-03-25T13:46:15.038Z,17.30
2019-03-25T13:48:43.551Z,15.75
2019-03-25T13:51:12.054Z,19.10
2019-03-25T13:53:40.512Z,19.02
2019-03-25T13:56:12.265Z,18.98
2019-03-25T13:58:40.784Z,23.73
2019-03-25T14:01:09.346Z,17.55
2019-03-25T14:03:37.869Z,20.10
2019-03-25T14:06:07.987Z,14.00
2019-03-25T14:08:36.644Z,21.70
2019-03-25T14:11:05.216Z,20.88
2019-03-25T14:13:33.705Z,24.98
2019-03-25T14:16:02.376Z,26.60
2019-03-25T14:18:32.488Z,20.30
2019-03-25T14:21:01.140Z,16.45
2019-03-25T14:23:30.808Z,23.80
2019-03-25T14:25:59.431Z,22.48
2019-03-25T14:28:28.580Z,21.15
2019-03-25T14:30:57.161Z,17.80
2019-03-25T14:33:25.800Z,24.45
2019-03-25T14:35:55.041Z,21.35
2019-03-25T14:38:25.759Z,22.20
2019-03-25T14:40:54.433Z,22.40
2019-03-25T14:43:23.034Z,18.30
2019-03-25T14:45:52.973Z,25.85
2019-03-25T14:48:21.617Z,23.70
2019-03-25T14:50:50.289Z,22.25
2019-03-25T14:53:18.956Z,14.70
2019-03-25T14:55:47.909Z,19.52
2019-03-25T14:58:19.131Z,21.20
2019-03-25T15:00:48.410Z,26.77
2019-03-25T15:03:17.040Z,29.85
2019-03-25T15:05:45.728Z,22.95
2019-03-25T15:08:14.909Z,20.25
2019-03-25T15:10:53.206Z,22.98
2019-03-25T15:13:15.893Z,27.02
2019-03-25T15:15:44.390Z,25.27
2019-03-25T15:18:15.761Z,25.08
2019-03-25T15:20:43.788Z,18.75
2019-03-25T15:23:14.278Z,23.80
2019-03-25T15:25:42.984Z,19.37
2019-03-25T15:28:11.574Z,21.30
2019-03-25T15:33:29.466Z,23.75
2019-03-25T15:35:59.641Z,20.90
2019-03-25T15:38:31.252Z,22.10
2019-03-25T15:41:11.006Z,23.95
2019-03-25T15:43:41.905Z,24.70
2019-03-25T15:49:10.869Z,23.77
2019-03-25T15:51:50.781Z,25.15
2019-03-25T15:54:29.900Z,17.87
2019-03-25T15:57:00.201Z,22.42
2019-03-25T15:59:30.138Z,22.65
2019-03-25T16:02:01.179Z,24.90
2019-03-25T16:04:31.629Z,18.10
2019-03-25T16:07:00.774Z,27.60
2019-03-25T16:09:31.959Z,24.77
2019-03-25T16:12:01.179Z,28.27
2019-03-25T16:14:44.920Z,22.27
2019-03-25T16:17:14.058Z,25.17
2019-03-25T16:19:45.093Z,24.82
2019-03-25T16:22:16.352Z,23.40
2019-03-25T16:24:44.923Z,28.92
2019-03-25T16:27:13.393Z,23.90
2019-03-25T16:29:41.903Z,16.52
2019-03-25T16:32:17.613Z,25.97
2019-03-25T16:34:46.223Z,37.75
2019-03-25T16:37:14.956Z,22.00
2019-03-25T16:39:45.223Z,25.95
2019-03-25T16:42:13.644Z,31.17
2019-03-25T16:44:43.640Z,28.50
2019-03-25T16:47:12.109Z,28.50
2019-03-25T16:49:51.017Z,34.65
2019-03-25T17:05:00.311Z,25.02
2019-03-25T17:36:59.036Z,21.82
2019-03-25T17:39:28.102Z,20.90
2019-03-25T17:41:56.546Z,25.60
2019-03-25T17:44:26.614Z,24.60
2019-03-25T17:46:55.886Z,28.35
2019-03-25T17:49:24.367Z,23.62
2019-03-25T17:51:52.901Z,36.50
2019-03-25T17:54:22.354Z,22.02
2019-03-25T17:56:50.788Z,28.85
2019-03-25T17:59:22.104Z,29.77
2019-03-25T18:01:56.596Z,22.05
2019-03-25T18:04:27.878Z,19.27
2019-03-25T18:07:00.632Z,24.20
2019-03-25T18:09:50.668Z,21.00
2019-03-25T18:18:10.102Z,22.45
2019-03-25T18:20:45.776Z,21.48
2019-03-25T18:23:16.100Z,16.55
2019-03-25T18:25:45.242Z,32.38
2019-03-25T18:28:16.705Z,36.53
2019-03-25T18:30:45.297Z,30.35
2019-03-25T18:33:16.579Z,28.38
2019-03-25T18:35:47.480Z,24.40
2019-03-25T18:41:29.051Z,22.35
2019-03-25T18:50:05.863Z,17.90
2019-03-25T18:55:32.284Z,17.50
2019-03-25T19:00:59.784Z,22.17
2019-03-25T19:09:27.092Z,18.05
2019-03-25T19:11:55.616Z,13.10
2019-03-25T19:14:24.188Z,13.50
2019-03-25T19:16:52.805Z,11.97
2019-03-25T19:19:21.413Z,9.28
2019-03-25T19:21:49.897Z,8.65
2019-03-25T19:27:17.587Z,10.55
2019-03-25T19:29:46.457Z,7.85
2019-03-25T19:32:15.076Z,5.47
2019-03-25T19:34:43.647Z,4.70
2019-03-25T19:37:12.499Z,2.08
2019-03-25T19:39:41.221Z,6.87
2019-03-25T19:42:09.767Z,6.92
2019-03-25T19:44:38.288Z,4.78
2019-03-25T19:47:06.843Z,4.08
2019-03-25T19:49:35.400Z,7.33
2019-03-25T19:52:05.370Z,9.48
2019-03-25T19:57:43.886Z,9.05
2019-03-25T20:03:11.713Z,3.47
2019-03-25T20:05:42.154Z,6.78
2019-03-25T20:11:02.922Z,3.70
2019-03-25T20:16:29.434Z,7.50
2019-03-25T20:18:58.091Z,3.87
2019-03-25T20:21:36.109Z,7.08
2019-03-25T20:27:15.594Z,10.78
2019-03-25T20:32:43.842Z,7.03
2019-03-25T20:38:35.213Z,2.22
2019-03-25T20:44:24.475Z,2.37
2019-03-25T20:46:53.078Z,6.28
2019-03-25T20:49:21.674Z,7.65
2019-03-25T20:51:56.515Z,5.25
2019-03-25T21:06:03.600Z,2.67
2019-03-25T21:11:31.758Z,4.00
2019-03-25T21:19:46.156Z,2.58
2019-03-25T21:22:16.382Z,5.87
2019-03-25T21:24:51.269Z,1.62
2019-03-25T21:27:19.579Z,1.82
2019-03-25T21:32:40.173Z,3.50
2019-03-25T21:35:09.236Z,2.05
2019-03-25T21:37:40.332Z,3.02
2019-03-25T21:40:21.037Z,9.83
2019-03-25T21:42:51.749Z,42.73
2019-03-25T21:45:24.804Z,14.87
2019-03-25T21:47:52.231Z,5.78
2019-03-25T21:50:22.233Z,1.37
2019-03-25T21:52:50.949Z,6.85
2019-03-25T21:55:19.497Z,4.03
2019-03-25T21:57:50.564Z,15.95
2019-03-25T22:00:20.616Z,12.60
2019-03-25T22:02:49.347Z,19.92
2019-03-25T22:05:17.967Z,12.47
2019-03-25T22:07:48.170Z,9.60
2019-03-25T22:10:23.479Z,7.42
2019-03-25T22:12:53.671Z,8.88
2019-03-25T22:15:22.312Z,9.95
2019-03-25T22:17:52.501Z,9.08
2019-03-25T22:20:21.047Z,4.45
2019-03-25T22:22:52.297Z,5.42
2019-03-25T22:25:20.854Z,2.35
2019-03-25T22:27:51.066Z,4.95
2019-03-25T22:30:19.683Z,2.22
2019-03-25T22:32:48.129Z,3.87
2019-03-25T22:35:16.664Z,12.47
2019-03-25T22:37:49.583Z,5.70
2019-03-25T22:40:18.130Z,2.47
2019-03-25T22:42:48.443Z,5.22
2019-03-25T22:45:18.554Z,1.85
2019-03-25T22:47:49.405Z,12.33
2019-03-25T22:50:27.702Z,7.40
2019-03-25T22:53:01.772Z,1.65
2019-03-25T22:55:30.315Z,1.85
2019-03-25T22:57:58.883Z,5.03
2019-03-25T23:00:30.307Z,4.87
2019-03-25T23:02:58.874Z,1.15
2019-03-25T23:05:27.472Z,2.62
2019-03-25T23:07:56.089Z,6.42
2019-03-25T23:10:24.686Z,3.58
2019-03-25T23:12:55.066Z,4.75
2019-03-25T23:15:28.256Z,1.98
2019-03-25T23:17:58.400Z,4.20
2019-03-25T23:20:28.586Z,3.70
2019-03-25T23:22:57.248Z,2.65
2019-03-25T23:25:26.427Z,2.47
2019-03-25T23:27:56.764Z,7.20
2019-03-25T23:30:26.932Z,7.30
2019-03-25T23:32:57.753Z,3.33
2019-03-25T23:35:25.722Z,2.60
2019-03-25T23:37:56.947Z,5.75
2019-03-25T23:40:25.612Z,3.45
2019-03-25T23:43:07.678Z,4.92
2019-03-25T23:45:31.786Z,2.47
2019-03-25T23:47:59.395Z,1.90
2019-03-25T23:50:27.998Z,3.42
2019-03-25T23:52:56.690Z,4.92
2019-03-25T23:55:25.277Z,2.10
2019-03-25T23:57:56.444Z,3.85
